Somerset, Texas
Current Conditions -  °F | °C
As of 8:08 AM on Sunday 21 Dec 2014 (Local Time) from KSKF Reporting Station
Overcast Overcast  
Wind Chill: 52°   Ceiling: 1700
Heat Index: 52°   Visibility: 8mi
Dew Point: 50°   Wind: 5mph
Humidity: 94%   Direction: 160°SSE
Pressure: 30.08"   Gusts: NA
Location:  29.23°N, 98.66°W
Report Text: KSKF 211408Z AUTO 16004KT 8SM SCT008 OVC017 11/10 A3008 RMK AO2 CIG 009V017 CIG 007 RWY33 $
Loading
Personal Weather Stations






























Interactive Weather Map New forecast layout! Learn more

10-Day Weather Forecast

Advertisements
Track Severe Weather on mobile